Time;durP1;ratioP1;P1;durP2;ratioP2;P2;SDS_P1;SDS_P2;PMS_P1;PMS_P2;Temp;Humidity;BMP_temperature;BMP_pressure;BME280_temperature;BME280_humidity;BME280_pressure;Samples;Min_cycle;Max_cycle;Signal;HPM_P1;HPM_P2
2021/10/26 00:02:17;;;;;;;21.40;9.43;;;11.40;99.90;;;;;;5021524;28;20047;-68
2021/10/26 00:04:43;;;;;;;23.35;9.63;;;11.40;99.90;;;;;;5037345;28;20033;-68
2021/10/26 00:07:10;;;;;;;21.00;8.93;;;11.40;99.90;;;;;;5040539;28;20475;-69
2021/10/26 00:09:36;;;;;;;24.77;9.13;;;11.40;99.90;;;;;;5018763;28;20112;-68
2021/10/26 00:12:03;;;;;;;22.63;9.90;;;11.40;99.90;;;;;;5037876;28;20039;-68
2021/10/26 00:14:29;;;;;;;24.58;10.13;;;11.50;99.90;;;;;;5039465;28;20493;-68
2021/10/26 00:16:55;;;;;;;23.42;9.95;;;11.50;99.90;;;;;;5020220;28;20033;-67
2021/10/26 00:19:21;;;;;;;20.92;8.70;;;11.50;99.90;;;;;;5020198;28;20039;-68
2021/10/26 00:21:47;;;;;;;18.60;9.85;;;11.60;99.90;;;;;;5039084;28;20029;-68
2021/10/26 00:24:12;;;;;;;24.08;8.90;;;11.60;99.90;;;;;;5037255;28;20041;-69
2021/10/26 00:26:38;;;;;;;29.25;10.13;;;11.60;99.90;;;;;;5039755;28;20032;-68
2021/10/26 00:29:05;;;;;;;17.20;8.80;;;11.60;99.90;;;;;;5019364;28;20033;-68
2021/10/26 00:31:32;;;;;;;20.45;9.13;;;11.70;99.90;;;;;;5020820;28;20041;-68
2021/10/26 00:33:58;;;;;;;18.15;8.82;;;11.70;99.90;;;;;;5037655;28;20423;-68
2021/10/26 00:36:24;;;;;;;18.20;9.48;;;11.70;99.90;;;;;;5038733;28;20033;-68
2021/10/26 00:38:50;;;;;;;23.88;10.27;;;11.70;99.90;;;;;;5038171;28;20029;-68
2021/10/26 00:41:16;;;;;;;23.65;9.55;;;11.70;99.90;;;;;;5037291;28;20448;-68
2021/10/26 00:43:42;;;;;;;18.27;8.35;;;11.70;99.90;;;;;;5039099;28;20075;-68
2021/10/26 00:46:09;;;;;;;18.15;8.90;;;11.70;99.90;;;;;;5038547;28;20033;-73
2021/10/26 00:48:34;;;;;;;21.85;8.82;;;11.80;99.90;;;;;;5042445;28;20128;-69
2021/10/26 00:51:00;;;;;;;20.88;9.35;;;11.80;99.90;;;;;;5023162;28;20120;-68
2021/10/26 00:53:26;;;;;;;22.75;8.70;;;11.80;99.90;;;;;;5021081;28;20037;-68
2021/10/26 00:55:52;;;;;;;20.35;9.55;;;11.80;99.90;;;;;;5019611;28;20047;-68
2021/10/26 00:58:19;;;;;;;32.70;9.68;;;11.80;99.90;;;;;;5019440;28;20037;-68
2021/10/26 01:00:45;;;;;;;28.70;10.30;;;11.80;99.90;;;;;;5020856;28;20102;-68
2021/10/26 01:03:11;;;;;;;25.83;10.02;;;11.90;99.90;;;;;;5036660;28;20040;-69
2021/10/26 01:05:37;;;;;;;26.27;8.73;;;11.90;99.90;;;;;;5039616;28;20400;-68
2021/10/26 01:08:03;;;;;;;19.65;8.27;;;11.90;99.90;;;;;;5036326;28;20033;-68
2021/10/26 01:10:29;;;;;;;23.15;9.85;;;11.90;99.90;;;;;;5039123;28;20060;-68
2021/10/26 01:12:54;;;;;;;26.00;8.82;;;11.90;99.90;;;;;;5036813;28;20072;-68
2021/10/26 01:15:20;;;;;;;21.98;9.23;;;12.00;99.90;;;;;;5037815;28;20045;-69
2021/10/26 01:17:46;;;;;;;30.42;9.93;;;12.00;99.90;;;;;;5037767;28;20091;-69
2021/10/26 01:20:11;;;;;;;21.30;9.15;;;12.10;99.90;;;;;;5018766;28;20048;-69
2021/10/26 01:22:40;;;;;;;22.77;8.30;;;12.10;99.90;;;;;;5039218;28;20461;-69
2021/10/26 01:25:08;;;;;;;17.75;8.98;;;12.10;99.90;;;;;;5022166;28;20436;-67
2021/10/26 01:27:34;;;;;;;20.52;9.10;;;12.10;99.90;;;;;;5035585;28;20048;-68
2021/10/26 01:29:59;;;;;;;25.23;9.35;;;12.10;99.90;;;;;;5021441;28;20086;-68
2021/10/26 01:32:25;;;;;;;20.20;9.27;;;12.10;99.90;;;;;;5036441;28;20033;-68
2021/10/26 01:34:50;;;;;;;22.52;8.77;;;12.10;99.90;;;;;;5020108;28;20041;-68
2021/10/26 01:37:16;;;;;;;18.83;7.97;;;12.20;99.90;;;;;;5019385;28;20124;-68
2021/10/26 01:39:42;;;;;;;22.63;8.70;;;12.10;99.90;;;;;;5017847;28;20037;-69
2021/10/26 01:42:09;;;;;;;27.10;9.50;;;12.20;99.90;;;;;;5018537;28;20500;-68
2021/10/26 01:44:35;;;;;;;22.33;9.95;;;12.10;99.90;;;;;;5024731;28;20392;-68
2021/10/26 01:47:01;;;;;;;21.02;9.30;;;12.10;99.90;;;;;;5045505;28;20082;-68
2021/10/26 01:49:27;;;;;;;26.27;10.27;;;12.10;99.90;;;;;;5027079;28;20033;-68
2021/10/26 01:51:52;;;;;;;22.13;9.18;;;12.00;99.90;;;;;;5040209;28;20037;-69
2021/10/26 01:54:19;;;;;;;20.65;9.68;;;12.00;99.90;;;;;;5023732;28;20038;-68
2021/10/26 01:56:45;;;;;;;18.52;8.68;;;12.00;99.90;;;;;;5041431;28;20040;-69
2021/10/26 01:59:12;;;;;;;25.33;8.98;;;12.00;99.90;;;;;;5040469;28;20496;-68
2021/10/26 02:01:37;;;;;;;28.80;8.73;;;11.80;99.90;;;;;;5042146;28;20086;-68
2021/10/26 02:04:03;;;;;;;20.23;8.88;;;11.80;99.90;;;;;;5039875;28;20037;-69
2021/10/26 02:06:29;;;;;;;21.08;9.55;;;11.70;99.90;;;;;;5043400;28;20041;-68
2021/10/26 02:08:54;;;;;;;23.17;9.23;;;11.60;99.90;;;;;;5042440;28;20060;-69
2021/10/26 02:11:20;;;;;;;21.88;10.02;;;11.50;99.90;;;;;;5021939;28;20056;-68
2021/10/26 02:13:45;;;;;;;22.73;8.88;;;11.40;99.90;;;;;;5022055;28;20549;-68
2021/10/26 02:16:11;;;;;;;26.10;9.10;;;11.40;99.90;;;;;;5041380;28;20159;-68
2021/10/26 02:18:37;;;;;;;19.15;8.38;;;11.40;99.90;;;;;;5021672;28;20033;-69
2021/10/26 02:21:02;;;;;;;23.98;8.20;;;11.30;99.90;;;;;;5042928;28;20040;-68
2021/10/26 02:23:29;;;;;;;20.67;8.77;;;11.20;99.90;;;;;;5021008;28;20068;-68
2021/10/26 02:25:54;;;;;;;23.55;9.02;;;11.10;99.90;;;;;;5041888;28;20029;-69
2021/10/26 02:28:20;;;;;;;19.52;7.50;;;11.10;99.90;;;;;;5039465;28;20065;-69
2021/10/26 02:30:46;;;;;;;22.42;8.63;;;11.00;99.90;;;;;;5022819;28;20037;-68
2021/10/26 02:33:12;;;;;;;20.60;9.45;;;11.00;99.90;;;;;;5040563;28;20056;-68
2021/10/26 02:35:38;;;;;;;18.65;8.70;;;11.00;99.90;;;;;;5039272;28;20125;-69
2021/10/26 02:38:04;;;;;;;18.80;8.38;;;10.90;99.90;;;;;;5024355;28;20037;-67
2021/10/26 02:40:30;;;;;;;22.25;8.68;;;10.90;99.90;;;;;;5020938;28;20068;-68
2021/10/26 02:42:56;;;;;;;21.95;10.13;;;10.80;99.90;;;;;;5024048;28;20060;-68
2021/10/26 02:45:27;;;;;;;21.20;8.55;;;10.80;99.90;;;;;;5039400;28;20067;-69
2021/10/26 02:47:53;;;;;;;20.42;9.25;;;10.80;99.90;;;;;;5041316;28;20400;-68
2021/10/26 02:50:19;;;;;;;18.52;8.65;;;10.80;99.90;;;;;;5022493;28;20128;-68
2021/10/26 02:52:46;;;;;;;20.63;8.70;;;10.80;99.90;;;;;;5040244;28;20044;-68
2021/10/26 02:55:12;;;;;;;23.45;9.32;;;10.90;99.90;;;;;;5038945;28;20061;-68
2021/10/26 02:57:38;;;;;;;21.98;9.20;;;10.90;99.90;;;;;;5021273;28;20036;-68
2021/10/26 03:00:07;;;;;;;16.92;8.00;;;10.90;99.90;;;;;;5041353;28;20036;-68
2021/10/26 03:02:33;;;;;;;20.88;8.68;;;10.90;99.90;;;;;;5020061;28;20133;-74
2021/10/26 03:04:59;;;;;;;17.88;9.15;;;11.00;99.90;;;;;;5041999;28;20067;-69
2021/10/26 03:07:25;;;;;;;17.75;9.02;;;10.90;99.90;;;;;;5020315;28;20056;-69
2021/10/26 03:09:50;;;;;;;26.50;8.80;;;10.90;99.90;;;;;;5040725;28;20485;-69
2021/10/26 03:12:16;;;;;;;19.90;9.23;;;10.90;99.90;;;;;;5038700;28;20339;-70
2021/10/26 03:14:41;;;;;;;20.75;7.78;;;10.90;99.90;;;;;;5021949;28;20069;-68
2021/10/26 03:17:07;;;;;;;18.08;8.90;;;10.90;99.90;;;;;;5040658;28;20452;-68
2021/10/26 03:19:33;;;;;;;23.77;9.95;;;10.90;99.90;;;;;;5038109;28;20034;-68
2021/10/26 03:21:59;;;;;;;20.52;8.10;;;10.90;99.90;;;;;;5041677;28;20025;-68
2021/10/26 03:24:24;;;;;;;19.70;8.43;;;11.00;99.90;;;;;;5037998;28;20512;-68
2021/10/26 03:26:50;;;;;;;21.70;8.68;;;11.00;99.90;;;;;;5040765;28;20033;-68
2021/10/26 03:29:15;;;;;;;23.65;8.75;;;10.90;99.90;;;;;;5038049;28;20391;-69
2021/10/26 03:31:41;;;;;;;20.05;9.43;;;10.90;99.90;;;;;;5039542;28;20026;-69
2021/10/26 03:34:07;;;;;;;23.02;8.82;;;10.90;99.90;;;;;;5040131;28;20025;-69
2021/10/26 03:36:33;;;;;;;25.02;9.43;;;10.90;99.90;;;;;;5038215;28;20030;-68
2021/10/26 03:38:59;;;;;;;21.17;9.55;;;10.80;99.90;;;;;;5022743;28;20396;-68
2021/10/26 03:41:25;;;;;;;20.35;9.90;;;10.70;99.90;;;;;;5019827;28;20025;-68
2021/10/26 03:43:51;;;;;;;22.13;9.05;;;10.70;99.90;;;;;;5040679;28;20061;-69
2021/10/26 03:46:17;;;;;;;21.85;9.55;;;10.70;99.90;;;;;;5040150;28;20091;-69
2021/10/26 03:48:43;;;;;;;29.40;10.50;;;10.60;99.90;;;;;;5039064;28;20036;-68
2021/10/26 03:51:09;;;;;;;25.25;9.35;;;10.60;99.90;;;;;;5039570;28;20068;-68
2021/10/26 03:53:35;;;;;;;25.33;10.38;;;10.60;99.90;;;;;;5038263;28;20073;-69
2021/10/26 03:56:01;;;;;;;25.10;10.85;;;10.60;99.90;;;;;;5022755;28;20037;-69
2021/10/26 03:58:27;;;;;;;25.15;10.25;;;10.60;99.90;;;;;;5019009;28;20057;-68
2021/10/26 04:00:53;;;;;;;33.45;9.70;;;10.50;99.90;;;;;;5022427;28;20057;-68
2021/10/26 04:03:18;;;;;;;23.70;10.23;;;10.50;99.90;;;;;;5019526;28;20041;-69
2021/10/26 04:05:56;;;;;;;22.98;9.65;;;10.50;99.90;;;;;;5039241;28;20033;-70
2021/10/26 04:11:17;;;;;;;;;;;10.40;99.90;;;;;;5041717;28;20067;-68
2021/10/26 04:13:42;;;;;;;25.30;9.35;;;10.40;99.90;;;;;;5038752;28;20327;-69
2021/10/26 04:16:08;;;;;;;24.63;10.10;;;10.40;99.90;;;;;;5021065;28;20562;-68
2021/10/26 04:18:34;;;;;;;24.40;10.35;;;10.40;99.90;;;;;;5037396;28;20087;-70
2021/10/26 04:21:00;;;;;;;21.38;10.18;;;10.40;99.90;;;;;;5040154;28;20045;-68
2021/10/26 04:23:26;;;;;;;24.13;11.32;;;10.40;99.90;;;;;;5036550;28;20037;-68
2021/10/26 04:25:51;;;;;;;28.95;9.73;;;10.50;99.90;;;;;;5040165;28;20041;-69
2021/10/26 04:28:18;;;;;;;23.20;9.27;;;10.50;99.90;;;;;;5019104;28;20605;-69
2021/10/26 04:30:44;;;;;;;19.67;9.48;;;10.50;99.90;;;;;;5038957;28;20033;-69
2021/10/26 04:33:11;;;;;;;25.80;9.63;;;10.60;99.90;;;;;;5020103;28;20086;-71
2021/10/26 04:35:37;;;;;;;24.70;10.43;;;10.70;99.90;;;;;;5020302;28;20037;-69
2021/10/26 04:38:03;;;;;;;29.23;9.63;;;10.70;99.90;;;;;;5021282;28;20029;-69
2021/10/26 04:40:31;;;;;;;24.85;9.68;;;10.80;99.90;;;;;;5019118;28;20676;-68
2021/10/26 04:42:57;;;;;;;24.77;9.43;;;10.70;99.90;;;;;;5039685;28;20041;-69
2021/10/26 04:45:23;;;;;;;21.48;9.35;;;10.70;99.90;;;;;;5039582;28;20041;-69
2021/10/26 04:47:49;;;;;;;24.40;9.65;;;10.80;99.90;;;;;;5040067;28;20025;-69
2021/10/26 04:50:15;;;;;;;35.53;10.30;;;10.80;99.90;;;;;;5021729;28;20033;-69
2021/10/26 04:52:41;;;;;;;30.23;8.98;;;10.80;99.90;;;;;;5037051;28;20047;-69
2021/10/26 04:55:07;;;;;;;26.20;8.40;;;10.80;99.90;;;;;;5038398;28;20064;-68
2021/10/26 04:57:33;;;;;;;19.63;8.25;;;10.80;99.90;;;;;;5037594;28;20090;-68
2021/10/26 04:59:58;;;;;;;27.98;9.07;;;10.90;99.90;;;;;;5035231;28;20659;-69
2021/10/26 05:02:24;;;;;;;20.15;8.50;;;10.90;99.90;;;;;;5021251;28;20037;-68
2021/10/26 05:04:50;;;;;;;24.60;8.40;;;10.90;99.90;;;;;;5036355;28;20040;-68
2021/10/26 05:07:16;;;;;;;35.55;9.13;;;10.90;99.90;;;;;;5039340;28;20031;-68
2021/10/26 05:09:42;;;;;;;27.83;8.93;;;10.90;99.90;;;;;;5036334;28;20431;-69
2021/10/26 05:12:08;;;;;;;26.15;9.23;;;10.90;99.90;;;;;;5018485;28;20033;-69
2021/10/26 05:14:34;;;;;;;26.13;8.85;;;10.90;99.90;;;;;;5019835;28;20084;-68
2021/10/26 05:17:02;;;;;;;27.70;8.73;;;10.80;99.90;;;;;;5038625;28;20033;-68
2021/10/26 05:19:28;;;;;;;25.33;8.60;;;10.80;99.90;;;;;;5018201;28;20030;-68
2021/10/26 05:21:54;;;;;;;17.60;7.70;;;10.80;99.90;;;;;;5039032;28;20037;-70
2021/10/26 05:24:20;;;;;;;18.90;7.45;;;10.70;99.90;;;;;;5035788;28;20048;-68
2021/10/26 05:26:46;;;;;;;14.57;6.10;;;10.70;99.90;;;;;;5021380;28;20558;-67
2021/10/26 05:29:12;;;;;;;14.00;6.57;;;10.70;99.90;;;;;;5036339;28;20045;-68
2021/10/26 05:31:39;;;;;;;20.38;6.10;;;10.70;99.90;;;;;;5038093;28;20116;-69
2021/10/26 05:34:09;;;;;;;14.45;6.20;;;10.60;99.90;;;;;;5020210;28;20032;-69
2021/10/26 05:36:36;;;;;;;16.02;6.40;;;10.60;99.90;;;;;;5037250;28;20037;-70
2021/10/26 05:39:05;;;;;;;20.80;6.85;;;10.60;99.90;;;;;;5037823;28;20084;-69
2021/10/26 05:41:31;;;;;;;19.52;6.63;;;10.50;99.90;;;;;;5041634;28;20037;-68
2021/10/26 05:43:56;;;;;;;20.65;6.57;;;10.50;99.90;;;;;;5039123;28;20041;-70
2021/10/26 05:46:22;;;;;;;14.50;5.40;;;10.50;99.90;;;;;;5035937;28;20163;-69
2021/10/26 05:48:48;;;;;;;16.17;5.65;;;10.40;99.90;;;;;;5036541;28;20037;-69
2021/10/26 05:51:13;;;;;;;13.95;6.13;;;10.40;99.90;;;;;;5038613;28;20047;-68
2021/10/26 05:53:39;;;;;;;10.35;5.68;;;10.40;99.90;;;;;;5036022;28;20087;-68
2021/10/26 05:56:05;;;;;;;16.17;6.75;;;10.40;99.90;;;;;;5020280;28;20507;-68
2021/10/26 05:58:30;;;;;;;16.40;6.47;;;10.30;99.90;;;;;;5036919;28;20375;-68
2021/10/26 06:00:56;;;;;;;17.17;5.90;;;10.30;99.90;;;;;;5038002;28;20033;-68
2021/10/26 06:03:22;;;;;;;15.77;5.85;;;10.30;99.90;;;;;;5035617;28;20095;-68
2021/10/26 06:05:47;;;;;;;16.75;6.05;;;10.30;99.90;;;;;;5039211;28;20036;-69
2021/10/26 06:08:13;;;;;;;12.85;5.50;;;10.30;99.90;;;;;;5017669;28;20560;-67
2021/10/26 06:10:43;;;;;;;19.42;6.18;;;10.20;99.90;;;;;;5020342;28;20701;-69
2021/10/26 06:13:11;;;;;;;13.90;5.85;;;10.20;99.90;;;;;;5023359;28;20075;-68
2021/10/26 06:15:38;;;;;;;13.15;5.93;;;10.20;99.90;;;;;;5036322;28;20038;-69
2021/10/26 06:18:05;;;;;;;15.57;6.28;;;10.20;99.90;;;;;;5019900;28;20036;-68
2021/10/26 06:20:30;;;;;;;19.65;5.82;;;10.20;99.90;;;;;;5037190;28;20144;-68
2021/10/26 06:22:56;;;;;;;15.45;5.90;;;10.20;99.90;;;;;;5036230;28;20545;-70
2021/10/26 06:25:22;;;;;;;16.00;6.10;;;10.20;99.90;;;;;;5038217;28;20044;-68
2021/10/26 06:27:47;;;;;;;16.42;5.50;;;10.20;99.90;;;;;;5035235;28;20041;-68
2021/10/26 06:30:13;;;;;;;20.05;5.82;;;10.20;99.90;;;;;;5045975;28;20071;-69
2021/10/26 06:32:42;;;;;;;14.00;5.70;;;10.20;99.90;;;;;;5050204;28;20500;-67
2021/10/26 06:35:12;;;;;;;10.55;5.45;;;10.10;99.90;;;;;;5050504;28;20037;-69
2021/10/26 06:37:42;;;;;;;11.85;5.20;;;10.10;99.90;;;;;;5045466;28;20148;-68
2021/10/26 06:40:08;;;;;;;13.35;6.05;;;10.00;99.90;;;;;;5032278;28;20390;-67
2021/10/26 06:42:34;;;;;;;10.50;5.28;;;10.00;99.90;;;;;;5031873;28;20116;-68
2021/10/26 06:45:00;;;;;;;13.43;5.78;;;10.00;99.90;;;;;;5050181;28;20785;-68
2021/10/26 06:47:26;;;;;;;14.45;6.32;;;9.90;99.90;;;;;;5049438;28;20036;-68
2021/10/26 06:49:52;;;;;;;18.25;6.68;;;10.00;99.90;;;;;;5029373;28;20029;-69
2021/10/26 06:52:17;;;;;;;13.75;5.43;;;9.90;99.90;;;;;;5049515;28;20116;-68
2021/10/26 06:54:43;;;;;;;23.02;6.50;;;10.00;99.90;;;;;;5049859;28;20074;-68
2021/10/26 06:57:09;;;;;;;15.38;5.70;;;9.90;99.90;;;;;;5032318;28;20515;-68
2021/10/26 06:59:35;;;;;;;16.42;5.95;;;9.90;99.90;;;;;;5048806;28;20033;-68
2021/10/26 07:02:02;;;;;;;13.60;6.30;;;9.80;99.90;;;;;;5031439;28;20033;-67
2021/10/26 07:04:28;;;;;;;19.45;6.38;;;9.90;99.90;;;;;;5030635;28;20094;-67
2021/10/26 07:06:54;;;;;;;18.30;6.30;;;9.90;99.90;;;;;;5031559;28;20048;-67
2021/10/26 07:09:19;;;;;;;16.10;5.18;;;9.90;99.90;;;;;;5031045;28;20045;-67
2021/10/26 07:11:45;;;;;;;19.77;5.70;;;9.90;99.90;;;;;;5030965;28;20094;-68
2021/10/26 07:14:11;;;;;;;20.48;5.63;;;9.90;99.90;;;;;;5024762;28;20084;-68
2021/10/26 07:16:37;;;;;;;16.08;5.72;;;9.90;99.90;;;;;;5022954;28;20033;-68
2021/10/26 07:19:03;;;;;;;15.68;5.45;;;10.00;99.90;;;;;;5039205;28;20033;-69
2021/10/26 07:21:29;;;;;;;16.52;5.28;;;9.90;99.90;;;;;;5042723;28;20036;-67
2021/10/26 07:23:54;;;;;;;11.85;5.22;;;9.90;99.90;;;;;;5038270;28;20053;-68
2021/10/26 07:26:21;;;;;;;18.77;6.10;;;9.90;99.90;;;;;;5039813;28;20033;-68
2021/10/26 07:28:47;;;;;;;21.25;6.75;;;9.90;99.90;;;;;;5036964;28;20551;-69
2021/10/26 07:31:13;;;;;;;17.60;5.50;;;10.00;99.90;;;;;;5040325;28;20036;-68
2021/10/26 07:33:38;;;;;;;12.50;5.65;;;10.00;99.90;;;;;;5039049;28;20511;-68
2021/10/26 07:36:07;;;;;;;14.15;5.32;;;10.10;99.90;;;;;;5028641;28;20503;-68
2021/10/26 07:38:37;;;;;;;21.02;5.57;;;10.10;99.90;;;;;;5045958;28;20029;-67
2021/10/26 07:41:04;;;;;;;15.77;5.93;;;10.20;99.90;;;;;;5045472;28;20123;-68
2021/10/26 07:43:30;;;;;;;16.42;6.53;;;10.40;99.90;;;;;;5045366;28;20041;-68
2021/10/26 07:46:00;;;;;;;16.38;5.95;;;10.60;99.90;;;;;;5046170;28;20045;-68
2021/10/26 07:48:27;;;;;;;10.98;4.03;;;10.70;99.90;;;;;;5044841;28;20032;-68
2021/10/26 07:50:57;;;;;;;12.32;5.30;;;10.80;99.90;;;;;;5045797;28;20052;-69
2021/10/26 07:53:23;;;;;;;;;;;10.90;99.90;;;;;;5046483;28;20033;-69
2021/10/26 07:55:51;;;;;;;14.70;5.40;;;11.10;99.90;;;;;;5046406;28;19919;-68
2021/10/26 07:58:16;;;;;;;19.25;5.43;;;11.20;99.90;;;;;;5045330;28;20059;-69
2021/10/26 08:00:42;;;;;;;16.80;5.70;;;11.30;99.90;;;;;;5024981;28;20061;-69
2021/10/26 08:03:07;;;;;;;14.88;5.72;;;11.50;99.90;;;;;;5044739;28;20037;-69
2021/10/26 08:05:33;;;;;;;16.20;5.55;;;11.60;99.90;;;;;;5028626;28;20028;-69
2021/10/26 08:07:59;;;;;;;13.02;5.47;;;11.60;99.90;;;;;;5028919;28;20124;-68
2021/10/26 08:10:25;;;;;;;18.90;6.00;;;11.70;99.90;;;;;;5028210;28;20039;-69
2021/10/26 08:12:51;;;;;;;16.52;4.97;;;11.80;99.90;;;;;;5045402;28;20040;-68
2021/10/26 08:15:16;;;;;;;13.82;5.97;;;11.70;99.90;;;;;;5028067;28;20033;-70
2021/10/26 08:17:42;;;;;;;18.52;6.22;;;11.70;99.90;;;;;;5045726;28;20632;-69
2021/10/26 08:20:08;;;;;;;18.15;4.65;;;11.70;99.90;;;;;;5028811;28;20033;-68
2021/10/26 08:22:38;;;;;;;13.25;4.95;;;11.70;99.90;;;;;;5027732;28;20036;-68
2021/10/26 08:25:10;;;;;;;15.37;5.37;;;11.80;99.90;;;;;;5040252;28;20057;-68
2021/10/26 08:27:36;;;;;;;12.75;4.15;;;11.80;99.90;;;;;;5038669;28;20276;-69
2021/10/26 08:30:15;;;;;;;12.85;5.13;;;11.80;99.90;;;;;;5015898;28;20044;-70
2021/10/26 08:32:48;;;;;;;15.60;5.13;;;11.80;99.90;;;;;;5027197;28;20029;-69
2021/10/26 08:37:46;;;;;;;14.73;4.75;;;11.90;99.90;;;;;;5044034;28;20072;-69
2021/10/26 08:40:12;;;;;;;12.77;4.47;;;11.90;99.90;;;;;;5040844;28;20033;-71
2021/10/26 08:42:38;;;;;;;13.75;4.55;;;11.90;99.90;;;;;;5043217;28;20037;-70
2021/10/26 08:45:05;;;;;;;18.30;5.47;;;12.00;99.90;;;;;;5033103;28;20056;-68
2021/10/26 08:47:31;;;;;;;16.13;4.50;;;12.00;99.90;;;;;;5024903;28;20041;-68
2021/10/26 08:49:56;;;;;;;14.65;4.80;;;12.10;99.90;;;;;;5018234;28;20037;-68
2021/10/26 08:52:24;;;;;;;14.63;4.55;;;12.10;99.90;;;;;;5022394;28;20056;-68
2021/10/26 08:54:54;;;;;;;18.70;5.15;;;12.10;99.90;;;;;;5019547;28;21290;-68
2021/10/26 08:57:21;;;;;;;9.48;4.32;;;12.10;99.90;;;;;;5043647;28;20041;-69
2021/10/26 08:59:47;;;;;;;10.65;4.93;;;12.10;99.90;;;;;;5020033;28;20040;-69
2021/10/26 09:02:12;;;;;;;14.30;4.60;;;12.20;99.90;;;;;;5039535;28;20034;-69
2021/10/26 09:04:38;;;;;;;11.80;4.57;;;12.30;99.90;;;;;;5021904;28;20074;-69
2021/10/26 09:07:14;;;;;;;17.20;5.57;;;12.40;99.90;;;;;;5039155;28;20029;-69
2021/10/26 09:09:40;;;;;;;14.93;5.35;;;12.40;99.90;;;;;;5042199;28;20025;-68
2021/10/26 09:17:52;;;;;;;15.27;5.40;;;12.60;99.90;;;;;;5040575;28;20044;-69
2021/10/26 09:20:23;;;;;;;12.40;4.68;;;12.60;99.90;;;;;;5037950;28;20075;-70
2021/10/26 09:22:55;;;;;;;13.85;5.13;;;12.60;99.90;;;;;;5018889;28;20033;-68
2021/10/26 09:25:40;;;;;;;16.80;5.65;;;12.60;99.90;;;;;;5019964;28;20040;-69
2021/10/26 09:28:14;;;;;;;16.05;5.85;;;12.60;99.90;;;;;;5040307;28;20025;-69
2021/10/26 09:30:41;;;;;;;16.40;6.20;;;12.70;99.90;;;;;;5039898;28;20087;-69
2021/10/26 09:33:08;;;;;;;15.30;6.05;;;12.80;99.90;;;;;;5035775;28;20029;-69
2021/10/26 09:35:35;;;;;;;16.08;6.72;;;12.80;99.90;;;;;;5040185;28;20037;-68
2021/10/26 09:38:02;;;;;;;15.63;7.88;;;12.80;99.90;;;;;;5042055;28;20051;-68
2021/10/26 09:40:40;;;;;;;15.52;6.38;;;12.90;99.90;;;;;;5050582;22;20044;-68
2021/10/26 09:43:10;;;;;;;14.95;7.03;;;12.90;99.90;;;;;;5055326;28;20048;-68
2021/10/26 09:45:37;;;;;;;17.70;7.70;;;12.90;99.90;;;;;;5054836;28;20057;-69
2021/10/26 09:48:23;;;;;;;18.40;7.80;;;12.80;99.90;;;;;;5036003;28;20556;-67
2021/10/26 09:50:49;;;;;;;17.10;7.38;;;12.90;99.90;;;;;;5063025;28;20036;-69
2021/10/26 09:53:16;;;;;;;29.67;8.63;;;12.80;99.90;;;;;;5054712;28;20051;-67
2021/10/26 09:55:44;;;;;;;16.48;8.18;;;12.90;99.90;;;;;;5040036;28;20032;-68
2021/10/26 09:58:15;;;;;;;21.02;8.00;;;12.90;99.90;;;;;;5041360;28;20054;-68
2021/10/26 10:00:45;;;;;;;;;;;12.90;99.90;;;;;;5039180;28;20067;-69
2021/10/26 10:03:21;;;;;;;17.40;7.93;;;12.80;99.90;;;;;;5055801;28;19920;-69
2021/10/26 10:05:55;;;;;;;18.38;8.27;;;12.90;99.90;;;;;;5058153;28;20041;-68
2021/10/26 10:08:39;;;;;;;22.73;7.53;;;12.80;99.90;;;;;;5059174;28;20041;-68
2021/10/26 10:11:13;;;;;;;18.38;7.25;;;12.90;99.90;;;;;;5059997;28;20036;-68
2021/10/26 10:13:39;;;;;;;17.17;6.70;;;12.90;99.90;;;;;;5038894;28;20420;-69
2021/10/26 10:16:10;;;;;;;16.10;6.75;;;12.90;99.90;;;;;;5065791;28;20087;-69
2021/10/26 10:18:36;;;;;;;16.33;7.30;;;12.90;99.90;;;;;;5058449;28;20471;-69
2021/10/26 10:21:02;;;;;;;13.35;6.55;;;12.80;99.90;;;;;;5038421;28;20151;-69
2021/10/26 10:23:29;;;;;;;16.00;6.47;;;12.70;99.90;;;;;;5037475;28;20029;-69
2021/10/26 10:25:57;;;;;;;16.92;6.93;;;12.50;99.90;;;;;;5055513;28;20041;-69
2021/10/26 10:28:29;;;;;;;18.77;6.85;;;12.40;99.90;;;;;;5042227;28;20095;-69
2021/10/26 10:30:57;;;;;;;17.90;7.85;;;12.40;99.90;;;;;;5054038;28;20036;-68
2021/10/26 10:33:23;;;;;;;15.80;7.07;;;12.40;99.90;;;;;;5036479;28;20077;-67
2021/10/26 10:35:53;;;;;;;13.45;6.43;;;12.40;99.90;;;;;;5041323;28;20528;-68
2021/10/26 10:38:22;;;;;;;;;;;12.40;99.90;;;;;;5063223;28;20043;-69
2021/10/26 10:40:48;;;;;;;17.35;8.05;;;12.40;99.90;;;;;;5059422;28;20008;-68
2021/10/26 10:43:14;;;;;;;15.88;8.07;;;12.50;99.90;;;;;;5047664;28;20137;-70
2021/10/26 10:45:44;;;;;;;17.05;8.65;;;12.50;99.90;;;;;;5058254;28;20036;-69
2021/10/26 10:48:27;;;;;;;;;;;12.50;99.90;;;;;;5037768;28;20045;-69
2021/10/26 10:51:07;;;;;;;19.27;7.90;;;12.50;99.90;;;;;;5040006;28;19918;-69
2021/10/26 10:53:34;;;;;;;14.52;6.80;;;12.50;99.90;;;;;;5038344;28;20098;-68
2021/10/26 10:56:18;;;;;;;24.17;8.98;;;12.50;99.90;;;;;;5047108;28;20038;-69
2021/10/26 10:58:45;;;;;;;23.02;9.02;;;12.60;99.90;;;;;;5036483;28;20119;-68
2021/10/26 11:01:31;;;;;;;21.10;10.02;;;12.60;99.90;;;;;;5040306;28;20029;-67
2021/10/26 11:03:58;;;;;;;24.83;10.27;;;12.70;99.90;;;;;;5062031;28;20046;-69
2021/10/26 11:06:42;;;;;;;24.88;10.15;;;12.70;99.90;;;;;;5039798;28;20032;-69
2021/10/26 11:09:31;;;;;;;23.70;10.23;;;12.70;99.90;;;;;;5055840;28;20620;-69
2021/10/26 11:12:14;;;;;;;28.15;11.63;;;12.70;99.90;;;;;;5062564;28;21530;-69
2021/10/26 11:14:45;;;;;;;27.35;12.50;;;12.80;99.90;;;;;;5064455;28;20488;-68
2021/10/26 11:17:39;;;;;;;28.45;11.80;;;12.80;99.90;;;;;;5042261;28;20320;-69
2021/10/26 11:20:09;;;;;;;22.77;11.80;;;13.00;99.90;;;;;;5036800;28;20124;-69
2021/10/26 11:23:01;;;;;;;30.15;11.35;;;13.10;99.90;;;;;;5043978;28;20388;-68
2021/10/26 11:25:34;;;;;;;29.85;11.45;;;13.30;99.90;;;;;;5044591;28;20036;-68
2021/10/26 11:28:24;;;;;;;26.75;11.30;;;13.40;99.90;;;;;;5048658;28;20484;-68
2021/10/26 11:31:01;;;;;;;25.93;10.97;;;13.40;99.90;;;;;;5032647;28;20563;-67
2021/10/26 11:33:28;;;;;;;25.15;10.98;;;13.50;99.90;;;;;;5060737;28;20029;-68
2021/10/26 11:35:55;;;;;;;29.77;11.15;;;13.60;99.90;;;;;;5064420;28;20037;-67
2021/10/26 11:38:29;;;;;;;29.00;11.18;;;13.70;99.90;;;;;;5064635;28;20121;-67
2021/10/26 11:41:06;;;;;;;27.23;10.00;;;13.70;99.90;;;;;;5045199;28;20040;-67
2021/10/26 11:43:40;;;;;;;34.92;12.40;;;13.60;99.90;;;;;;5048324;28;20041;-68
2021/10/26 11:46:07;;;;;;;21.10;10.38;;;13.60;99.90;;;;;;5059590;28;20052;-68
2021/10/26 11:48:50;;;;;;;26.77;10.45;;;13.50;99.90;;;;;;5066388;28;20036;-66
2021/10/26 11:51:43;;;;;;;26.25;9.93;;;13.60;99.90;;;;;;5040363;28;20041;-69
2021/10/26 11:54:20;;;;;;;24.88;9.88;;;13.50;99.90;;;;;;5041553;28;20068;-68
2021/10/26 11:56:49;;;;;;;20.70;9.68;;;13.60;99.90;;;;;;5062239;28;20040;-67
2021/10/26 11:59:26;;;;;;;22.83;9.02;;;13.60;99.90;;;;;;5039671;28;20033;-68
2021/10/26 12:01:55;;;;;;;16.63;7.53;;;13.50;99.90;;;;;;5057901;28;20071;-67
2021/10/26 12:04:24;;;;;;;24.65;8.70;;;13.50;99.90;;;;;;5059994;28;20044;-66
2021/10/26 12:06:55;;;;;;;24.40;7.25;;;13.60;99.90;;;;;;5036876;28;20037;-68
2021/10/26 12:09:22;;;;;;;13.38;4.72;;;13.50;99.90;;;;;;5041190;28;20033;-68
2021/10/26 12:11:50;;;;;;;13.68;4.10;;;13.50;99.90;;;;;;5059476;28;20081;-69
2021/10/26 12:14:39;;;;;;;10.35;3.50;;;13.60;99.90;;;;;;5070332;28;20063;-68
2021/10/26 12:17:08;;;;;;;8.23;2.72;;;13.60;99.90;;;;;;5047012;28;20499;-68
2021/10/26 12:19:35;;;;;;;10.55;2.70;;;13.70;99.90;;;;;;5063585;28;20067;-67
2021/10/26 12:22:01;;;;;;;8.85;2.10;;;13.80;99.90;;;;;;5046128;28;20032;-68
2021/10/26 12:24:29;;;;;;;6.70;2.17;;;13.80;99.90;;;;;;5038320;28;20033;-68
2021/10/26 12:27:06;;;;;;;9.20;2.35;;;13.90;99.90;;;;;;5064139;28;20159;-67
2021/10/26 12:29:37;;;;;;;9.40;2.35;;;13.90;99.90;;;;;;5062539;28;20040;-68
2021/10/26 12:32:06;;;;;;;5.90;2.42;;;14.00;99.90;;;;;;5063350;28;20040;-70
2021/10/26 12:34:43;;;;;;;8.32;1.45;;;14.10;99.90;;;;;;5046713;28;20036;-69
2021/10/26 12:37:21;;;;;;;6.70;1.88;;;14.10;99.90;;;;;;5035031;28;20033;-68
2021/10/26 12:39:52;;;;;;;10.20;1.77;;;14.20;99.90;;;;;;5039078;28;20052;-67
2021/10/26 12:42:32;;;;;;;7.25;1.98;;;14.20;99.90;;;;;;5050316;28;20116;-67
2021/10/26 12:44:57;;;;;;;6.38;1.60;;;14.10;99.90;;;;;;5039408;28;20403;-72
2021/10/26 12:47:23;;;;;;;8.32;2.35;;;14.10;99.90;;;;;;5053979;28;20086;-68
2021/10/26 12:49:48;;;;;;;10.00;2.58;;;14.20;99.90;;;;;;5061204;28;20025;-68
2021/10/26 12:52:15;;;;;;;19.83;3.33;;;14.20;99.90;;;;;;5043290;28;20021;-68
2021/10/26 12:54:41;;;;;;;7.03;2.33;;;14.30;99.90;;;;;;5054640;28;20488;-69